TimeCST,TemperatureF,Dew PointF,Humidity,Sea Level PressureIn,VisibilityMPH,Wind Direction,Wind SpeedMPH,Gust SpeedMPH,PrecipitationIn,Events,Conditions,WindDirDegrees,DateUTC
12:13 AM,21.2,15.8,80,29.34,10.0,SSE,11.5,-,N/A,,Overcast,150,2014-01-26 06:13:00
12:32 AM,21.2,15.8,80,29.33,10.0,SSE,9.2,-,N/A,,Overcast,160,2014-01-26 06:32:00
12:53 AM,23.0,17.6,80,29.32,10.0,South,9.2,-,N/A,,Overcast,180,2014-01-26 06:53:00
1:12 AM,23.0,17.6,80,29.32,10.0,South,4.6,-,N/A,,Overcast,190,2014-01-26 07:12:00
1:32 AM,26.6,21.2,80,29.32,10.0,West,10.4,-,N/A,,Overcast,270,2014-01-26 07:32:00
1:52 AM,30.2,26.6,86,29.32,10.0,WNW,21.9,-,N/A,,Overcast,290,2014-01-26 07:52:00
2:12 AM,30.2,28.4,93,29.32,0.8,NW,31.1,42.6,N/A,Snow,Light Snow,310,2014-01-26 08:12:00
2:33 AM,30.2,28.4,93,29.34,1.0,WNW,28.8,35.7,N/A,,Overcast,300,2014-01-26 08:33:00
2:52 AM,30.2,28.4,93,29.35,1.2,WNW,28.8,35.7,N/A,,Overcast,300,2014-01-26 08:52:00
3:12 AM,30.2,26.6,86,29.36,2.0,WNW,26.5,32.2,N/A,,Mostly Cloudy,300,2014-01-26 09:12:00
3:33 AM,30.2,26.6,86,29.37,1.0,WNW,36.8,52.9,N/A,Snow,Light Snow,300,2014-01-26 09:33:00
3:52 AM,28.4,26.6,93,29.38,0.8,NW,28.8,43.7,N/A,Snow,Snow,310,2014-01-26 09:52:00
4:12 AM,28.4,26.6,93,29.38,0.8,NW,33.4,44.9,N/A,Snow,Light Snow,310,2014-01-26 10:12:00
4:33 AM,28.4,26.6,93,29.40,0.5,NW,29.9,42.6,N/A,Snow,Snow,310,2014-01-26 10:33:00
4:52 AM,28.4,26.6,93,29.40,1.0,WNW,29.9,40.3,N/A,Snow,Light Snow,300,2014-01-26 10:52:00
5:12 AM,28.4,24.8,86,29.43,2.0,WNW,27.6,33.4,N/A,,Overcast,300,2014-01-26 11:12:00
5:32 AM,26.6,24.8,93,29.44,0.8,WNW,34.5,46.0,N/A,Snow,Snow,290,2014-01-26 11:32:00
5:52 AM,26.6,24.8,93,29.45,2.0,WNW,26.5,41.4,N/A,,Overcast,300,2014-01-26 11:52:00
6:12 AM,26.6,24.8,93,29.45,1.8,WNW,27.6,35.7,N/A,,Overcast,300,2014-01-26 12:12:00
6:32 AM,26.6,23.0,86,29.45,4.0,WNW,19.6,33.4,N/A,,Overcast,300,2014-01-26 12:32:00
6:53 AM,26.6,23.0,86,29.46,4.0,WNW,19.6,27.6,N/A,,Overcast,300,2014-01-26 12:53:00
7:12 AM,26.6,23.0,86,29.47,7.0,WNW,24.2,32.2,N/A,,Overcast,300,2014-01-26 13:12:00
7:32 AM,26.6,21.2,80,29.47,5.0,WNW,23.0,34.5,N/A,,Overcast,300,2014-01-26 13:32:00
7:53 AM,24.8,21.2,86,29.46,10.0,NW,20.7,-,N/A,,Scattered Clouds,320,2014-01-26 13:53:00
8:12 AM,23.0,21.2,93,29.47,3.0,NW,15.0,-,N/A,,Scattered Clouds,310,2014-01-26 14:12:00
8:32 AM,23.0,19.4,86,29.47,7.0,WNW,23.0,27.6,N/A,,Mostly Cloudy,300,2014-01-26 14:32:00
8:53 AM,23.0,19.4,86,29.45,10.0,WNW,19.6,25.3,N/A,,Scattered Clouds,290,2014-01-26 14:53:00
9:12 AM,23.0,19.4,86,29.46,10.0,WNW,15.0,20.7,N/A,,Mostly Cloudy,300,2014-01-26 15:12:00
9:32 AM,23.0,19.4,86,29.45,10.0,WNW,16.1,-,N/A,,Overcast,290,2014-01-26 15:32:00
9:53 AM,24.8,19.4,80,29.46,10.0,West,12.7,18.4,N/A,,Overcast,280,2014-01-26 15:53:00
10:12 AM,24.8,19.4,80,29.46,10.0,WNW,15.0,21.9,N/A,,Overcast,300,2014-01-26 16:12:00
10:32 AM,24.8,17.6,74,29.47,10.0,WNW,18.4,23.0,N/A,,Overcast,300,2014-01-26 16:32:00
10:53 AM,21.2,17.6,86,29.50,0.5,NW,26.5,35.7,N/A,Snow,Light Snow,310,2014-01-26 16:53:00
11:12 AM,21.2,17.6,86,29.51,0.8,WNW,20.7,26.5,N/A,Snow,Light Snow,300,2014-01-26 17:12:00
11:32 AM,21.2,17.6,86,29.50,1.2,WNW,21.9,26.5,N/A,Snow,Light Snow,300,2014-01-26 17:32:00
11:53 AM,21.2,17.6,86,29.51,5.0,WNW,20.7,26.5,N/A,Snow,Light Snow,290,2014-01-26 17:53:00
12:12 PM,21.2,17.6,86,29.51,1.2,NW,18.4,24.2,N/A,Snow,Light Snow,310,2014-01-26 18:12:00
12:32 PM,21.2,17.6,86,29.50,1.8,NW,16.1,23.0,N/A,Snow,Light Snow,310,2014-01-26 18:32:00
12:53 PM,19.4,17.6,93,29.52,0.2,NW,26.5,35.7,N/A,Snow,Light Snow,310,2014-01-26 18:53:00
1:12 PM,17.6,15.8,93,29.53,0.2,NW,29.9,36.8,N/A,Snow,Heavy Snow,320,2014-01-26 19:12:00
1:33 PM,17.6,15.8,93,29.54,0.2,NW,28.8,34.5,N/A,Snow,Light Snow,310,2014-01-26 19:33:00
1:53 PM,15.8,14.0,93,29.57,0.2,NW,26.5,31.1,N/A,Snow,Snow,310,2014-01-26 19:53:00
2:12 PM,14.0,10.4,86,29.58,0.2,NW,27.6,38.0,N/A,Snow,Heavy Snow,320,2014-01-26 20:12:00
2:33 PM,15.8,10.4,79,29.60,0.5,NW,25.3,32.2,N/A,Fog,Light Freezing Fog,320,2014-01-26 20:33:00
2:53 PM,15.8,12.2,86,29.63,0.5,NNW,21.9,-,N/A,Snow,Light Snow,330,2014-01-26 20:53:00
3:12 PM,10.4,8.6,92,29.67,0.2,NNW,34.5,42.6,N/A,Snow,Heavy Snow,340,2014-01-26 21:12:00
3:33 PM,8.6,6.8,92,29.70,0.2,NW,39.1,48.3,N/A,Snow,Heavy Snow,320,2014-01-26 21:33:00
3:53 PM,8.6,5.0,85,29.73,0.2,NW,41.4,47.2,N/A,Snow,Heavy Snow,320,2014-01-26 21:53:00
4:12 PM,6.8,3.2,85,29.76,0.2,NW,36.8,48.3,N/A,Snow,Heavy Snow,320,2014-01-26 22:12:00
4:33 PM,6.8,5.0,92,29.78,0.2,NW,31.1,38.0,N/A,Snow,Snow,310,2014-01-26 22:33:00
4:53 PM,5.0,1.4,85,29.82,0.2,NW,40.3,55.2,N/A,Snow,Light Snow,310,2014-01-26 22:53:00
5:12 PM,3.2,-0.4,85,29.84,0.2,NW,35.7,49.5,N/A,Snow,Light Snow,310,2014-01-26 23:12:00
5:33 PM,3.2,-0.4,85,29.86,0.2,NW,33.4,48.3,N/A,Snow,Snow,310,2014-01-26 23:33:00
5:52 PM,1.4,-2.2,85,29.88,0.2,NW,41.4,49.5,N/A,Snow,Snow,310,2014-01-26 23:52:00
6:12 PM,1.4,-2.2,85,29.91,0.2,NW,34.5,43.7,N/A,Snow,Heavy Snow,310,2014-01-27 00:12:00
6:33 PM,-0.4,-5.8,78,29.93,0.5,NW,33.4,43.7,N/A,Snow,Heavy Snow,310,2014-01-27 00:33:00
6:52 PM,-0.4,-5.8,78,29.94,0.8,NW,31.1,42.6,N/A,Snow,Snow,310,2014-01-27 00:52:00
7:12 PM,-2.2,-5.8,85,29.96,0.8,NW,35.7,43.7,N/A,Snow,Light Snow,310,2014-01-27 01:12:00
7:33 PM,-2.2,-5.8,85,29.98,0.5,NW,34.5,44.9,N/A,Snow,Snow,310,2014-01-27 01:33:00
7:52 PM,-2.2,-5.8,85,30.00,0.5,NW,34.5,43.7,N/A,Snow,Snow,310,2014-01-27 01:52:00
8:12 PM,-2.2,-7.6,78,30.02,0.5,NW,33.4,49.5,N/A,Snow,Snow,310,2014-01-27 02:12:00
8:33 PM,-2.2,-9.4,71,30.04,1.5,NW,29.9,38.0,N/A,Snow,Light Snow,310,2014-01-27 02:33:00
8:52 PM,-2.2,-7.6,78,30.04,1.2,NW,34.5,40.3,N/A,Snow,Light Snow,310,2014-01-27 02:52:00
9:12 PM,-2.2,-9.4,71,30.06,1.5,NW,31.1,41.4,N/A,Snow,Light Snow,310,2014-01-27 03:12:00
9:32 PM,-4.0,-9.4,78,30.07,0.5,NW,39.1,44.9,N/A,Snow,Snow,320,2014-01-27 03:32:00
9:52 PM,-4.0,-9.4,78,30.09,0.8,NW,34.5,43.7,N/A,Snow,Light Snow,310,2014-01-27 03:52:00
10:12 PM,-5.8,-9.4,84,30.10,1.8,NW,31.1,47.2,N/A,Snow,Light Snow,320,2014-01-27 04:12:00
10:32 PM,-5.8,-11.2,77,30.12,3.0,NW,29.9,36.8,N/A,,Haze,320,2014-01-27 04:32:00
10:53 PM,-5.8,-11.2,77,30.12,7.0,NW,28.8,36.8,N/A,,Scattered Clouds,320,2014-01-27 04:53:00
11:12 PM,-5.8,-11.2,77,30.13,4.0,NW,27.6,-,N/A,,Haze,320,2014-01-27 05:12:00
11:32 PM,-5.8,-11.2,77,30.15,5.0,NW,23.0,-,N/A,,Haze,320,2014-01-27 05:32:00
11:53 PM,-5.8,-11.2,77,30.16,2.0,NW,27.6,35.7,N/A,Snow,Light Snow,310,2014-01-27 05:53:00